createdAt,value
2023-04-26T00:00:47.736Z,1.70
2023-04-26T00:01:47.727Z,1.40
2023-04-26T00:02:47.795Z,1.90
2023-04-26T00:03:47.951Z,1.50
2023-04-26T00:04:47.892Z,1.50
2023-04-26T00:05:47.728Z,1.80
2023-04-26T00:06:47.681Z,1.80
2023-04-26T00:07:47.691Z,1.80
2023-04-26T00:08:47.657Z,1.70
2023-04-26T00:09:47.647Z,1.70
2023-04-26T00:10:47.632Z,1.60
2023-04-26T00:11:47.627Z,2.00
2023-04-26T00:12:47.619Z,1.80
2023-04-26T00:13:47.619Z,1.50
2023-04-26T00:14:47.600Z,1.90
2023-04-26T00:15:47.589Z,1.60
2023-04-26T00:16:47.623Z,1.60
2023-04-26T00:17:47.640Z,2.00
2023-04-26T00:18:47.548Z,1.60
2023-04-26T00:19:47.555Z,1.80
2023-04-26T00:20:47.535Z,2.00
2023-04-26T00:21:47.522Z,1.70
2023-04-26T00:22:47.529Z,1.40
2023-04-26T00:23:47.505Z,1.90
2023-04-26T00:24:47.481Z,1.90
2023-04-26T00:25:47.483Z,1.40
2023-04-26T00:26:47.481Z,1.80
2023-04-26T00:27:47.478Z,1.90
2023-04-26T00:28:47.464Z,1.60
2023-04-26T00:29:47.449Z,1.70
2023-04-26T00:30:47.461Z,1.70
2023-04-26T00:31:47.454Z,1.50
2023-04-26T00:32:47.456Z,2.10
2023-04-26T00:33:47.405Z,1.60
2023-04-26T00:34:47.396Z,1.50
2023-04-26T00:35:47.416Z,2.20
2023-04-26T00:36:47.371Z,1.80
2023-04-26T00:37:47.382Z,1.70
2023-04-26T00:38:47.346Z,2.00
2023-04-26T00:39:47.336Z,1.80
2023-04-26T00:40:47.325Z,1.80
2023-04-26T00:41:47.319Z,1.90
2023-04-26T00:42:47.301Z,1.90
2023-04-26T00:43:47.317Z,1.50
2023-04-26T00:44:47.286Z,1.70
2023-04-26T00:45:47.331Z,1.90
2023-04-26T00:46:47.287Z,2.00
2023-04-26T00:47:47.271Z,1.50
2023-04-26T00:48:47.275Z,2.00
2023-04-26T00:49:47.307Z,2.00
2023-04-26T00:50:47.221Z,1.90
2023-04-26T00:51:47.228Z,1.90
2023-04-26T00:52:47.243Z,1.90
2023-04-26T00:53:47.209Z,1.70
2023-04-26T00:54:47.179Z,1.90
2023-04-26T00:55:47.234Z,1.90
2023-04-26T00:56:47.160Z,1.90
2023-04-26T00:57:47.161Z,1.90
2023-04-26T00:58:47.180Z,1.80
2023-04-26T00:59:47.136Z,2.00
2023-04-26T01:00:47.153Z,1.90
2023-04-26T01:01:47.122Z,1.90
2023-04-26T01:02:47.398Z,2.10
2023-04-26T01:03:47.163Z,2.20
2023-04-26T01:04:47.102Z,2.30
2023-04-26T01:05:47.070Z,2.10
2023-04-26T01:06:47.052Z,1.70
2023-04-26T01:07:47.068Z,2.20
2023-04-26T01:08:47.072Z,2.20
2023-04-26T01:09:47.034Z,1.70
2023-04-26T01:10:47.018Z,1.90
2023-04-26T01:11:47.006Z,2.20
2023-04-26T01:12:47.002Z,1.90
2023-04-26T01:13:47.005Z,1.90
2023-04-26T01:14:46.977Z,2.20
2023-04-26T01:15:46.967Z,2.10
2023-04-26T01:16:47.153Z,1.90
2023-04-26T01:17:47.036Z,2.40
2023-04-26T01:18:46.948Z,2.00
2023-04-26T01:19:46.916Z,2.10
2023-04-26T01:20:46.914Z,1.80
2023-04-26T01:21:46.895Z,2.00
2023-04-26T01:22:46.916Z,2.30
2023-04-26T01:23:46.912Z,2.30
2023-04-26T01:24:46.871Z,2.40
2023-04-26T01:25:46.860Z,2.00
2023-04-26T01:26:46.856Z,1.80
2023-04-26T01:27:46.853Z,2.00
2023-04-26T01:28:46.849Z,2.10
2023-04-26T01:29:46.815Z,1.90
2023-04-26T01:30:46.822Z,1.80
2023-04-26T01:31:46.803Z,2.20
2023-04-26T01:32:46.799Z,2.00
2023-04-26T01:33:46.788Z,1.90
2023-04-26T01:34:46.766Z,2.30
2023-04-26T01:35:46.750Z,1.90
2023-04-26T01:36:46.740Z,1.90
2023-04-26T01:37:46.725Z,1.50
2023-04-26T01:38:46.747Z,2.10
2023-04-26T01:39:46.711Z,2.10
2023-04-26T01:40:46.699Z,1.70
2023-04-26T01:41:46.692Z,1.90
2023-04-26T01:42:46.673Z,1.70
2023-04-26T01:43:46.693Z,1.90
2023-04-26T01:44:46.668Z,2.00
2023-04-26T01:45:46.658Z,2.40
2023-04-26T01:46:46.695Z,2.40
2023-04-26T01:47:46.660Z,1.80
2023-04-26T01:48:46.660Z,2.10
2023-04-26T01:49:46.613Z,2.10
2023-04-26T01:50:46.609Z,1.80
2023-04-26T01:51:46.583Z,2.00
2023-04-26T01:52:46.587Z,1.90
2023-04-26T01:53:46.574Z,1.60
2023-04-26T01:54:46.556Z,1.60
2023-04-26T01:55:46.599Z,1.80
2023-04-26T01:56:46.535Z,1.60
2023-04-26T01:57:46.549Z,1.70
2023-04-26T01:58:46.557Z,2.30
2023-04-26T01:59:46.508Z,1.80
2023-04-26T02:00:46.495Z,2.20
2023-04-26T02:01:46.754Z,2.20
2023-04-26T02:02:46.563Z,1.80
2023-04-26T02:03:46.557Z,1.70
2023-04-26T02:04:46.526Z,2.20
2023-04-26T02:05:46.437Z,2.20
2023-04-26T02:06:46.435Z,1.90
2023-04-26T02:07:46.440Z,2.50
2023-04-26T02:08:46.446Z,2.60
2023-04-26T02:09:46.414Z,2.40
2023-04-26T02:10:46.427Z,1.80
2023-04-26T02:11:46.383Z,2.60
2023-04-26T02:12:46.382Z,2.30
2023-04-26T02:13:46.374Z,2.40
2023-04-26T02:14:46.381Z,2.50
2023-04-26T02:15:46.366Z,2.10
2023-04-26T02:16:46.336Z,1.90
2023-04-26T02:17:46.352Z,1.70
2023-04-26T02:18:46.343Z,2.20
2023-04-26T02:19:46.304Z,2.10
2023-04-26T02:20:46.335Z,1.70
2023-04-26T02:21:46.313Z,2.30
2023-04-26T02:22:46.286Z,2.30
2023-04-26T02:23:46.267Z,2.00
2023-04-26T02:24:46.294Z,2.00
2023-04-26T02:25:46.253Z,2.30
2023-04-26T02:26:46.234Z,2.30
2023-04-26T02:27:46.237Z,1.90
2023-04-26T02:28:46.221Z,2.90
2023-04-26T02:29:46.231Z,2.60
2023-04-26T02:30:46.201Z,2.20
2023-04-26T02:31:46.197Z,2.20
2023-04-26T02:32:46.218Z,2.50
2023-04-26T02:33:46.179Z,2.30
2023-04-26T02:34:46.188Z,1.80
2023-04-26T02:35:46.144Z,2.30
2023-04-26T02:36:46.146Z,2.20
2023-04-26T02:37:46.132Z,1.90
2023-04-26T02:38:46.128Z,1.50
2023-04-26T02:39:46.140Z,2.10
2023-04-26T02:40:46.111Z,1.70
2023-04-26T02:41:46.080Z,1.90
2023-04-26T02:42:46.108Z,2.20
2023-04-26T02:43:46.068Z,2.00
2023-04-26T02:44:46.080Z,2.00
2023-04-26T02:45:46.049Z,2.00
2023-04-26T02:46:46.104Z,2.00
2023-04-26T02:47:46.052Z,1.70
2023-04-26T02:48:46.022Z,1.70
2023-04-26T02:49:46.014Z,1.40
2023-04-26T02:50:46.005Z,2.20
2023-04-26T02:51:45.983Z,2.20
2023-04-26T02:52:45.979Z,2.30
2023-04-26T02:53:45.983Z,2.70
2023-04-26T02:54:45.979Z,2.40
2023-04-26T02:55:45.946Z,2.30
2023-04-26T02:56:45.931Z,2.30
2023-04-26T02:57:45.919Z,2.60
2023-04-26T02:58:45.912Z,2.40
2023-04-26T02:59:45.927Z,2.50
2023-04-26T03:00:45.930Z,2.80
2023-04-26T03:01:45.892Z,2.00
2023-04-26T03:02:45.994Z,2.80
2023-04-26T03:03:45.928Z,2.40
2023-04-26T03:04:45.869Z,2.10
2023-04-26T03:05:45.835Z,1.80
2023-04-26T03:06:45.839Z,1.90
2023-04-26T03:07:45.849Z,1.90
2023-04-26T03:08:45.811Z,1.60
2023-04-26T03:09:45.827Z,2.10
2023-04-26T03:10:45.818Z,2.20
2023-04-26T03:11:46.811Z,2.10
2023-04-26T03:12:45.781Z,1.90
2023-04-26T03:13:45.768Z,2.60
2023-04-26T03:14:45.771Z,2.40
2023-04-26T03:15:45.749Z,2.20
2023-04-26T03:16:45.777Z,2.00
2023-04-26T03:17:45.775Z,2.40
2023-04-26T03:18:45.720Z,2.30
2023-04-26T03:19:45.723Z,2.30
2023-04-26T03:20:45.704Z,2.20
2023-04-26T03:21:45.629Z,2.50
2023-04-26T03:22:45.674Z,2.50
2023-04-26T03:23:45.660Z,2.20
2023-04-26T03:24:45.751Z,2.40
2023-04-26T03:25:45.639Z,2.60
2023-04-26T03:26:45.590Z,2.40
2023-04-26T03:27:45.602Z,2.20
2023-04-26T03:28:45.562Z,2.90
2023-04-26T03:29:45.607Z,2.70
2023-04-26T03:30:45.602Z,2.50
2023-04-26T03:31:45.611Z,2.20
2023-04-26T03:32:45.543Z,2.50
2023-04-26T03:33:45.556Z,2.60
2023-04-26T03:34:45.528Z,2.60
2023-04-26T03:35:45.496Z,2.20
2023-04-26T03:36:45.532Z,2.70
2023-04-26T03:37:45.548Z,2.40
2023-04-26T03:38:45.471Z,2.10
2023-04-26T03:39:45.487Z,2.50
2023-04-26T03:40:45.465Z,2.30
2023-04-26T03:41:45.422Z,2.20
2023-04-26T03:42:45.434Z,2.30
2023-04-26T03:43:45.402Z,3.00
2023-04-26T03:44:45.448Z,2.60
2023-04-26T03:45:45.421Z,2.70
2023-04-26T03:46:45.382Z,1.90
2023-04-26T03:47:45.399Z,2.40
2023-04-26T03:48:45.392Z,2.60
2023-04-26T03:49:45.372Z,2.20
2023-04-26T03:50:45.352Z,2.00
2023-04-26T03:51:45.321Z,2.50
2023-04-26T03:52:45.327Z,2.60
2023-04-26T03:53:45.299Z,2.30
2023-04-26T03:54:45.312Z,2.10
2023-04-26T03:55:45.282Z,2.70
2023-04-26T03:56:45.287Z,2.70
2023-04-26T03:57:45.266Z,2.40
2023-04-26T03:58:45.256Z,2.50
2023-04-26T03:59:45.272Z,2.80
2023-04-26T04:00:45.233Z,2.70
2023-04-26T04:01:45.217Z,2.70
2023-04-26T04:02:45.424Z,2.60
2023-04-26T04:03:45.367Z,2.60
2023-04-26T04:04:45.413Z,2.30
2023-04-26T04:05:45.212Z,2.80
2023-04-26T04:06:45.178Z,3.10
2023-04-26T04:07:45.155Z,3.20
2023-04-26T04:08:45.170Z,3.20
2023-04-26T04:09:45.161Z,2.80
2023-04-26T04:10:45.137Z,3.10
2023-04-26T04:11:45.794Z,3.40
2023-04-26T04:12:45.115Z,3.10
2023-04-26T04:13:45.095Z,3.10
2023-04-26T04:14:45.129Z,3.70
2023-04-26T04:15:45.220Z,3.80
2023-04-26T04:16:45.074Z,3.30
2023-04-26T04:17:45.080Z,3.60
2023-04-26T04:18:45.069Z,3.60
2023-04-26T04:19:45.071Z,3.60
2023-04-26T04:20:45.079Z,3.10
2023-04-26T04:21:45.032Z,3.80
2023-04-26T04:22:45.018Z,3.40
2023-04-26T04:23:44.996Z,3.50
2023-04-26T04:24:45.020Z,3.10
2023-04-26T04:25:44.992Z,3.70
2023-04-26T04:26:44.994Z,3.40
2023-04-26T04:27:44.953Z,3.50
2023-04-26T04:28:44.956Z,2.90
2023-04-26T04:29:44.953Z,3.60
2023-04-26T04:30:44.955Z,3.20
2023-04-26T04:31:44.972Z,2.70
2023-04-26T04:32:45.043Z,2.70
2023-04-26T04:33:44.894Z,2.60
2023-04-26T04:34:44.896Z,2.60
2023-04-26T04:35:44.957Z,2.30
2023-04-26T04:36:44.863Z,2.80
2023-04-26T04:37:44.864Z,2.60
2023-04-26T04:38:44.841Z,2.50
2023-04-26T04:39:44.831Z,2.30
2023-04-26T04:40:45.057Z,2.40
2023-04-26T04:41:44.819Z,2.70
2023-04-26T04:42:44.849Z,2.70
2023-04-26T04:43:44.799Z,2.80
2023-04-26T04:44:44.795Z,2.70
2023-04-26T04:45:44.801Z,2.80
2023-04-26T04:46:44.868Z,2.40
2023-04-26T04:47:44.834Z,2.60
2023-04-26T04:48:44.750Z,2.60
2023-04-26T04:49:44.847Z,2.60
2023-04-26T04:50:44.750Z,2.80
2023-04-26T04:51:44.707Z,3.00
2023-04-26T04:52:44.726Z,3.10
2023-04-26T04:53:44.685Z,2.00
2023-04-26T04:54:44.692Z,2.30
2023-04-26T04:55:44.683Z,2.70
2023-04-26T04:56:44.661Z,2.80
2023-04-26T04:57:44.650Z,2.40
2023-04-26T04:58:44.642Z,2.60
2023-04-26T04:59:44.680Z,2.40
2023-04-26T05:00:44.656Z,2.50
2023-04-26T05:01:44.655Z,2.50
2023-04-26T05:02:44.757Z,2.50
2023-04-26T05:03:44.723Z,2.40
2023-04-26T05:04:44.686Z,2.50
2023-04-26T05:05:44.591Z,2.40
2023-04-26T05:06:44.615Z,2.80
2023-04-26T05:07:44.547Z,2.90
2023-04-26T05:08:44.549Z,2.50
2023-04-26T05:09:44.531Z,3.20
2023-04-26T05:10:44.538Z,3.20
2023-04-26T05:11:44.572Z,2.80
2023-04-26T05:12:44.511Z,2.70
2023-04-26T05:13:44.487Z,3.00
2023-04-26T05:14:44.481Z,3.30
2023-04-26T05:15:44.514Z,3.00
2023-04-26T05:16:44.493Z,3.20
2023-04-26T05:17:44.469Z,2.50
2023-04-26T05:18:44.443Z,2.60
2023-04-26T05:19:44.432Z,2.90
2023-04-26T05:20:44.794Z,2.80
2023-04-26T05:21:44.413Z,2.90
2023-04-26T05:22:44.399Z,3.00
2023-04-26T05:23:44.388Z,2.90
2023-04-26T05:24:44.397Z,3.50
2023-04-26T05:25:44.384Z,3.40
2023-04-26T05:26:44.390Z,3.20
2023-04-26T05:27:44.342Z,3.10
2023-04-26T05:28:44.340Z,3.10
2023-04-26T05:29:44.324Z,3.10
2023-04-26T05:30:44.592Z,2.80
2023-04-26T05:31:44.375Z,3.40
2023-04-26T05:32:44.368Z,2.60
2023-04-26T05:33:44.288Z,2.70
2023-04-26T05:34:44.283Z,3.00
2023-04-26T05:35:44.283Z,2.80
2023-04-26T05:36:44.250Z,2.60
2023-04-26T05:37:44.265Z,3.20
2023-04-26T05:38:44.315Z,2.70
2023-04-26T05:39:44.250Z,2.80
2023-04-26T05:40:44.410Z,2.90
2023-04-26T05:41:44.211Z,2.80
2023-04-26T05:42:44.269Z,2.60
2023-04-26T05:43:44.177Z,2.60
2023-04-26T05:44:44.186Z,2.30
2023-04-26T05:45:44.268Z,2.10
2023-04-26T05:46:44.222Z,2.70
2023-04-26T05:47:44.163Z,2.10
2023-04-26T05:48:44.136Z,2.50
2023-04-26T05:49:44.135Z,2.30
2023-04-26T05:50:44.127Z,2.30
2023-04-26T05:51:44.099Z,2.70
2023-04-26T05:52:44.122Z,2.40
2023-04-26T05:53:44.083Z,2.50
2023-04-26T05:54:44.088Z,2.20
2023-04-26T05:55:44.074Z,1.90
2023-04-26T05:56:44.066Z,2.40
2023-04-26T05:57:44.070Z,2.60
2023-04-26T05:58:44.016Z,2.30
2023-04-26T05:59:44.008Z,2.70
2023-04-26T06:00:43.985Z,2.00
2023-04-26T06:01:44.393Z,2.30
2023-04-26T06:02:44.104Z,2.30
2023-04-26T06:03:44.235Z,2.10
2023-04-26T06:04:44.222Z,2.60
2023-04-26T06:05:44.017Z,2.20
2023-04-26T06:06:43.952Z,2.10
2023-04-26T06:07:43.927Z,2.70
2023-04-26T06:08:43.901Z,2.30
2023-04-26T06:09:43.918Z,2.40
2023-04-26T06:10:43.890Z,2.50
2023-04-26T06:11:43.898Z,2.40
2023-04-26T06:12:43.865Z,2.50
2023-04-26T06:13:43.874Z,2.20
2023-04-26T06:14:43.858Z,2.80
2023-04-26T06:15:43.856Z,2.40
2023-04-26T06:16:43.999Z,2.50
2023-04-26T06:17:43.867Z,2.20
2023-04-26T06:18:43.812Z,2.60
2023-04-26T06:19:43.796Z,2.70
2023-04-26T06:20:43.789Z,2.20
2023-04-26T06:21:43.861Z,2.40
2023-04-26T06:22:43.761Z,2.90
2023-04-26T06:23:43.755Z,2.20
2023-04-26T06:24:43.827Z,2.40
2023-04-26T06:25:43.764Z,2.40
2023-04-26T06:26:43.768Z,2.00
2023-04-26T06:27:43.723Z,2.50
2023-04-26T06:28:43.696Z,2.60
2023-04-26T06:29:43.743Z,2.20
2023-04-26T06:30:43.806Z,2.50
2023-04-26T06:31:43.714Z,2.50
2023-04-26T06:32:43.708Z,2.70
2023-04-26T06:33:43.666Z,2.50
2023-04-26T06:34:43.640Z,2.40
2023-04-26T06:35:43.634Z,2.60
2023-04-26T06:36:43.649Z,2.30
2023-04-26T06:37:43.644Z,2.40
2023-04-26T06:38:43.616Z,2.70
2023-04-26T06:39:43.592Z,2.60
2023-04-26T06:40:43.596Z,2.40
2023-04-26T06:41:43.592Z,2.60
2023-04-26T06:42:43.567Z,2.90
2023-04-26T06:43:43.545Z,2.40
2023-04-26T06:44:43.548Z,2.30
2023-04-26T06:45:43.731Z,2.30
2023-04-26T06:46:43.730Z,2.20
2023-04-26T06:47:43.569Z,1.90
2023-04-26T06:48:43.672Z,2.30
2023-04-26T06:49:43.497Z,2.00
2023-04-26T06:50:43.479Z,2.10
2023-04-26T06:51:43.523Z,2.10
2023-04-26T06:52:43.453Z,2.00
2023-04-26T06:53:43.456Z,1.90
2023-04-26T06:54:56.085Z,2.00
2023-04-26T06:55:43.448Z,2.20
2023-04-26T06:56:43.465Z,1.80
2023-04-26T06:57:43.405Z,1.90
2023-04-26T06:58:43.387Z,2.10
2023-04-26T06:59:43.395Z,2.00
2023-04-26T07:00:43.384Z,2.10
2023-04-26T07:01:43.447Z,1.90
2023-04-26T07:02:43.464Z,2.10
2023-04-26T07:03:43.407Z,2.00
2023-04-26T07:04:43.855Z,2.00
2023-04-26T07:05:43.323Z,2.40
2023-04-26T07:06:44.083Z,1.90
2023-04-26T07:07:43.321Z,2.00
2023-04-26T07:08:43.285Z,2.00
2023-04-26T07:09:43.286Z,1.80
2023-04-26T07:10:43.285Z,2.00
2023-04-26T07:11:43.325Z,2.00
2023-04-26T07:12:43.240Z,1.90
2023-04-26T07:13:43.229Z,2.20
2023-04-26T07:14:43.307Z,1.70
2023-04-26T07:15:43.345Z,2.10
2023-04-26T07:16:43.545Z,2.00
2023-04-26T07:17:43.321Z,2.10
2023-04-26T07:18:43.185Z,1.90
2023-04-26T07:19:43.176Z,2.00
2023-04-26T07:20:43.167Z,2.10
2023-04-26T07:21:43.200Z,1.80
2023-04-26T07:22:43.270Z,2.00
2023-04-26T07:23:43.124Z,2.00
2023-04-26T07:24:43.146Z,1.70
2023-04-26T07:25:43.174Z,1.90
2023-04-26T07:26:43.110Z,2.00
2023-04-26T07:27:43.093Z,2.40
2023-04-26T07:28:43.073Z,2.00
2023-04-26T07:29:43.078Z,2.10
2023-04-26T07:30:43.062Z,2.00
2023-04-26T07:31:43.062Z,1.90
2023-04-26T07:32:43.202Z,2.10
2023-04-26T07:33:43.120Z,2.00
2023-04-26T07:34:43.012Z,2.00
2023-04-26T07:35:43.062Z,1.50
2023-04-26T07:36:43.004Z,1.60
2023-04-26T07:37:43.000Z,1.40
2023-04-26T07:38:42.982Z,1.60
2023-04-26T07:39:42.958Z,1.60
2023-04-26T07:40:42.947Z,1.50
2023-04-26T07:41:44.104Z,1.70
2023-04-26T07:42:42.921Z,1.50
2023-04-26T07:43:43.001Z,1.50
2023-04-26T07:44:42.919Z,1.80
2023-04-26T07:45:42.940Z,1.80
2023-04-26T07:46:42.917Z,2.10
2023-04-26T07:47:42.920Z,1.80
2023-04-26T07:48:42.862Z,1.60
2023-04-26T07:49:42.850Z,1.50
2023-04-26T07:50:42.838Z,1.20
2023-04-26T07:51:42.846Z,1.40
2023-04-26T07:52:42.818Z,1.60
2023-04-26T07:53:42.825Z,1.50
2023-04-26T07:54:42.793Z,1.10
2023-04-26T07:55:42.970Z,1.30
2023-04-26T07:56:42.801Z,1.20
2023-04-26T07:57:42.766Z,1.50
2023-04-26T07:58:42.757Z,1.60
2023-04-26T07:59:42.751Z,2.10
2023-04-26T08:00:42.727Z,1.70
2023-04-26T08:01:42.817Z,1.20
2023-04-26T08:02:44.463Z,1.50
2023-04-26T08:03:42.960Z,1.60
2023-04-26T08:04:42.801Z,1.50
2023-04-26T08:05:43.054Z,1.30
2023-04-26T08:06:42.779Z,1.90
2023-04-26T08:07:42.664Z,1.70
2023-04-26T08:08:42.667Z,1.20
2023-04-26T08:09:42.649Z,1.40
2023-04-26T08:10:42.949Z,1.10
2023-04-26T08:11:42.699Z,1.20
2023-04-26T08:12:42.606Z,1.40
2023-04-26T08:13:42.662Z,1.40
2023-04-26T08:14:42.578Z,1.20
2023-04-26T08:15:42.645Z,1.20
2023-04-26T08:16:42.624Z,1.20
2023-04-26T08:17:42.649Z,1.30
2023-04-26T08:18:45.380Z,1.10
2023-04-26T08:19:42.579Z,1.50
2023-04-26T08:20:42.509Z,1.30
2023-04-26T08:21:42.527Z,1.10
2023-04-26T08:22:42.523Z,1.40
2023-04-26T08:23:42.489Z,1.20
2023-04-26T08:24:42.490Z,1.20
2023-04-26T08:25:42.463Z,1.60
2023-04-26T08:26:42.495Z,1.30
2023-04-26T08:27:42.452Z,1.10
2023-04-26T08:28:42.443Z,1.30
2023-04-26T08:29:42.436Z,1.40
2023-04-26T08:30:42.415Z,1.40
2023-04-26T08:31:42.434Z,1.00
2023-04-26T08:32:42.474Z,1.20
2023-04-26T08:33:42.383Z,1.60
2023-04-26T08:34:42.395Z,1.50
2023-04-26T08:35:42.406Z,1.50
2023-04-26T08:36:42.371Z,1.40
2023-04-26T08:37:42.340Z,1.50
2023-04-26T08:38:42.328Z,1.10
2023-04-26T08:39:42.322Z,1.30
2023-04-26T08:40:42.310Z,1.40
2023-04-26T08:41:42.319Z,1.70
2023-04-26T08:42:42.291Z,1.70
2023-04-26T08:43:42.273Z,1.20
2023-04-26T08:44:42.270Z,1.50
2023-04-26T08:45:42.300Z,1.60
2023-04-26T08:46:42.401Z,1.60
2023-04-26T08:47:42.253Z,1.30
2023-04-26T08:48:42.219Z,1.70
2023-04-26T08:49:42.219Z,1.50
2023-04-26T08:50:42.203Z,1.40
2023-04-26T08:51:42.242Z,1.40
2023-04-26T08:52:42.183Z,1.30
2023-04-26T08:53:42.304Z,1.40
2023-04-26T08:54:42.148Z,1.50
2023-04-26T08:55:42.185Z,1.40
2023-04-26T08:56:42.263Z,1.30
2023-04-26T08:57:42.318Z,1.40
2023-04-26T08:58:42.121Z,1.70
2023-04-26T08:59:42.113Z,1.20
2023-04-26T09:00:42.108Z,1.50
2023-04-26T09:01:42.132Z,1.20
2023-04-26T09:02:42.280Z,1.50
2023-04-26T09:03:42.313Z,2.00
2023-04-26T09:04:42.194Z,1.50
2023-04-26T09:05:42.116Z,1.10
2023-04-26T09:06:42.027Z,1.50
2023-04-26T09:07:42.048Z,1.50
2023-04-26T09:08:42.026Z,1.10
2023-04-26T09:09:41.998Z,1.30
2023-04-26T09:10:41.995Z,1.50
2023-04-26T09:11:41.979Z,1.30
2023-04-26T09:12:42.058Z,1.40
2023-04-26T09:13:41.957Z,1.50
2023-04-26T09:14:42.095Z,1.70
2023-04-26T09:15:41.977Z,1.20
2023-04-26T09:16:42.041Z,1.40
2023-04-26T09:17:42.131Z,1.40
2023-04-26T09:18:41.913Z,1.20
2023-04-26T09:19:41.914Z,1.20
2023-04-26T09:20:41.913Z,1.40
2023-04-26T09:21:41.880Z,1.40
2023-04-26T09:22:41.962Z,1.10
2023-04-26T09:23:41.850Z,1.00
2023-04-26T09:24:41.908Z,1.00
2023-04-26T09:25:41.830Z,1.30
2023-04-26T09:26:41.821Z,1.30
2023-04-26T09:27:41.855Z,1.40
2023-04-26T09:28:41.788Z,1.00
2023-04-26T09:29:41.785Z,1.30
2023-04-26T09:30:41.850Z,1.20
2023-04-26T09:31:41.825Z,1.40
2023-04-26T09:32:41.809Z,1.10
2023-04-26T09:33:41.753Z,1.40
2023-04-26T09:34:41.751Z,1.30
2023-04-26T09:35:41.822Z,1.10
2023-04-26T09:36:41.720Z,1.30
2023-04-26T09:37:54.382Z,1.30
2023-04-26T09:38:41.682Z,1.10
2023-04-26T09:39:41.714Z,1.40
2023-04-26T09:40:41.702Z,1.10
2023-04-26T09:41:41.702Z,1.00
2023-04-26T09:42:41.667Z,1.00
2023-04-26T09:43:41.643Z,1.00
2023-04-26T09:44:41.701Z,1.10
2023-04-26T09:45:41.646Z,1.10
2023-04-26T09:46:41.622Z,1.00
2023-04-26T09:47:41.637Z,1.00
2023-04-26T09:48:41.733Z,1.00
2023-04-26T09:49:41.594Z,0.80
2023-04-26T09:50:41.577Z,0.80
2023-04-26T09:51:41.553Z,1.00
2023-04-26T09:52:41.591Z,1.00
2023-04-26T09:53:41.528Z,0.90
2023-04-26T09:54:41.545Z,1.10
2023-04-26T09:55:41.507Z,1.00
2023-04-26T09:56:41.509Z,0.70
2023-04-26T09:57:41.528Z,0.90
2023-04-26T09:58:41.504Z,1.00
2023-04-26T09:59:41.457Z,1.00
2023-04-26T10:00:41.484Z,1.00
2023-04-26T10:01:41.449Z,1.10
2023-04-26T10:02:41.572Z,1.00
2023-04-26T10:03:41.693Z,0.90
2023-04-26T10:04:41.497Z,1.00
2023-04-26T10:05:41.446Z,1.00
2023-04-26T10:06:41.388Z,1.10
2023-04-26T10:07:41.660Z,0.90
2023-04-26T10:08:41.372Z,1.20
2023-04-26T10:09:41.361Z,1.00
2023-04-26T10:10:41.458Z,1.30
2023-04-26T10:11:41.328Z,1.10
2023-04-26T10:12:41.349Z,1.10
2023-04-26T10:13:41.313Z,1.00
2023-04-26T10:14:41.459Z,1.50
2023-04-26T10:15:41.292Z,1.00
2023-04-26T10:16:41.349Z,1.20
2023-04-26T10:17:41.329Z,1.10
2023-04-26T10:18:41.342Z,1.10
2023-04-26T10:19:41.253Z,1.30
2023-04-26T10:20:41.248Z,1.30
2023-04-26T10:21:41.241Z,1.40
2023-04-26T10:22:41.258Z,1.10
2023-04-26T10:23:41.233Z,1.30
2023-04-26T10:24:41.215Z,1.00
2023-04-26T10:25:41.188Z,1.20
2023-04-26T10:26:41.191Z,1.30
2023-04-26T10:27:41.171Z,1.30
2023-04-26T10:28:41.157Z,1.20
2023-04-26T10:29:41.190Z,1.40
2023-04-26T10:30:41.142Z,1.00
2023-04-26T10:31:41.164Z,1.20
2023-04-26T10:32:41.126Z,1.00
2023-04-26T10:33:41.119Z,1.50
2023-04-26T10:34:41.136Z,0.90
2023-04-26T10:35:41.090Z,1.10
2023-04-26T10:36:41.074Z,1.00
2023-04-26T10:37:41.297Z,1.10
2023-04-26T10:38:41.198Z,1.30
2023-04-26T10:39:41.116Z,1.10
2023-04-26T10:40:41.113Z,0.90
2023-04-26T10:41:41.035Z,1.20
2023-04-26T10:42:41.630Z,1.10
2023-04-26T10:43:41.008Z,0.90
2023-04-26T10:44:41.120Z,1.00
2023-04-26T10:45:41.013Z,0.90
2023-04-26T10:46:41.049Z,1.00
2023-04-26T10:47:41.019Z,1.00
2023-04-26T10:48:41.042Z,0.70
2023-04-26T10:49:40.929Z,1.10
2023-04-26T10:50:40.950Z,1.10
2023-04-26T10:51:40.908Z,1.20
2023-04-26T10:52:40.912Z,0.90
2023-04-26T10:53:40.971Z,1.30
2023-04-26T10:54:40.884Z,1.10
2023-04-26T10:55:40.933Z,1.30
2023-04-26T10:56:40.871Z,1.00
2023-04-26T10:57:40.882Z,1.00
2023-04-26T10:58:40.887Z,1.10
2023-04-26T10:59:53.972Z,1.10
2023-04-26T11:00:40.826Z,1.40
2023-04-26T11:01:40.840Z,1.00
2023-04-26T11:02:40.916Z,1.10
2023-04-26T11:03:41.275Z,0.90
2023-04-26T11:04:40.826Z,1.20
2023-04-26T11:05:40.841Z,1.10
2023-04-26T11:06:40.916Z,1.10
2023-04-26T11:07:40.735Z,0.90
2023-04-26T11:08:40.780Z,1.10
2023-04-26T11:09:40.769Z,1.30
2023-04-26T11:10:40.720Z,1.40
2023-04-26T11:11:40.705Z,1.40
2023-04-26T11:12:40.704Z,1.30
2023-04-26T11:13:40.730Z,1.50
2023-04-26T11:14:40.672Z,1.50
2023-04-26T11:15:40.727Z,1.20
2023-04-26T11:16:40.776Z,1.30
2023-04-26T11:17:40.663Z,1.30
2023-04-26T11:18:40.652Z,1.20
2023-04-26T11:19:41.049Z,1.20
2023-04-26T11:20:40.611Z,1.30
2023-04-26T11:21:40.600Z,1.30
2023-04-26T11:22:40.623Z,1.20
2023-04-26T11:23:40.608Z,1.40
2023-04-26T11:24:40.579Z,1.60
2023-04-26T11:25:40.548Z,1.30
2023-04-26T11:26:40.551Z,1.20
2023-04-26T11:27:40.541Z,1.00
2023-04-26T11:28:40.536Z,1.30
2023-04-26T11:29:40.511Z,1.30
2023-04-26T11:30:40.514Z,1.40
2023-04-26T11:31:40.522Z,1.30
2023-04-26T11:32:40.519Z,1.20
2023-04-26T11:33:40.484Z,1.00
2023-04-26T11:34:40.465Z,1.20
2023-04-26T11:35:40.461Z,0.90
2023-04-26T11:36:40.451Z,1.30
2023-04-26T11:37:40.434Z,1.00
2023-04-26T11:38:40.854Z,1.60
2023-04-26T11:39:40.406Z,1.20
2023-04-26T11:40:40.424Z,1.30
2023-04-26T11:41:40.376Z,1.20
2023-04-26T11:42:40.378Z,1.40
2023-04-26T11:43:40.415Z,1.10
2023-04-26T11:44:40.356Z,1.20
2023-04-26T11:45:40.342Z,1.10
2023-04-26T11:46:40.362Z,1.30
2023-04-26T11:47:40.342Z,1.30
2023-04-26T11:48:40.343Z,1.30
2023-04-26T11:49:40.305Z,1.00
2023-04-26T11:50:40.300Z,1.10
2023-04-26T11:51:40.285Z,1.10
2023-04-26T11:52:40.269Z,1.10
2023-04-26T11:53:40.329Z,1.20
2023-04-26T11:54:40.266Z,1.30
2023-04-26T11:55:40.259Z,1.10
2023-04-26T11:56:40.228Z,1.10
2023-04-26T11:57:40.231Z,0.90
2023-04-26T11:58:40.223Z,1.10
2023-04-26T11:59:40.186Z,1.10
2023-04-26T12:00:40.187Z,0.90
2023-04-26T12:01:40.207Z,1.30
2023-04-26T12:02:40.270Z,1.20
2023-04-26T12:03:40.292Z,1.50
2023-04-26T12:04:40.392Z,1.00
2023-04-26T12:05:40.136Z,1.10
2023-04-26T12:06:40.118Z,1.20
2023-04-26T12:07:40.173Z,1.40
2023-04-26T12:08:40.169Z,0.90
2023-04-26T12:09:40.075Z,1.00
2023-04-26T12:10:40.088Z,0.70
2023-04-26T12:11:40.090Z,0.90
2023-04-26T12:12:40.074Z,1.20
2023-04-26T12:13:40.685Z,1.20
2023-04-26T12:14:40.047Z,1.10
2023-04-26T12:15:40.045Z,1.00
2023-04-26T12:16:40.167Z,1.10
2023-04-26T12:17:40.041Z,1.10
2023-04-26T12:18:40.010Z,1.20
2023-04-26T12:19:40.000Z,0.80
2023-04-26T12:20:39.972Z,1.20
2023-04-26T12:21:39.968Z,1.20
2023-04-26T12:22:39.947Z,0.90
2023-04-26T12:23:39.949Z,1.00
2023-04-26T12:24:39.925Z,1.20
2023-04-26T12:25:39.938Z,1.00
2023-04-26T12:26:39.902Z,1.00
2023-04-26T12:27:39.892Z,1.20
2023-04-26T12:28:39.908Z,0.80
2023-04-26T12:29:39.869Z,1.10
2023-04-26T12:30:39.889Z,0.80
2023-04-26T12:31:39.873Z,1.00
2023-04-26T12:32:39.862Z,0.90
2023-04-26T12:33:39.887Z,1.10
2023-04-26T12:34:39.857Z,0.90
2023-04-26T12:35:39.828Z,1.10
2023-04-26T12:36:39.802Z,1.10
2023-04-26T12:37:39.778Z,1.10
2023-04-26T12:38:39.887Z,1.20
2023-04-26T12:39:39.759Z,1.10
2023-04-26T12:40:39.804Z,1.20
2023-04-26T12:41:39.774Z,1.30
2023-04-26T12:42:39.735Z,1.00
2023-04-26T12:43:39.759Z,1.30
2023-04-26T12:44:39.751Z,1.00
2023-04-26T12:45:39.728Z,1.20
2023-04-26T12:46:39.723Z,1.10
2023-04-26T12:47:39.742Z,1.00
2023-04-26T12:48:39.691Z,1.40
2023-04-26T12:49:39.651Z,1.20
2023-04-26T12:50:40.012Z,1.10
2023-04-26T12:51:39.743Z,1.20
2023-04-26T12:52:39.626Z,1.40
2023-04-26T12:53:39.686Z,1.20
2023-04-26T12:54:39.613Z,1.40
2023-04-26T12:55:39.604Z,1.10
2023-04-26T12:56:39.609Z,1.10
2023-04-26T12:57:39.622Z,1.00
2023-04-26T12:58:39.575Z,1.20
2023-04-26T12:59:39.579Z,1.30
2023-04-26T13:00:39.548Z,1.20
2023-04-26T13:01:39.625Z,1.20
2023-04-26T13:02:39.624Z,1.00
2023-04-26T13:03:39.800Z,1.70
2023-04-26T13:04:41.286Z,0.90
2023-04-26T13:05:39.492Z,1.10
2023-04-26T13:06:39.484Z,0.90
2023-04-26T13:07:39.461Z,1.10
2023-04-26T13:08:39.472Z,1.20
2023-04-26T13:09:39.482Z,1.30
2023-04-26T13:10:39.456Z,1.40
2023-04-26T13:11:39.420Z,1.00
2023-04-26T13:12:39.414Z,1.20
2023-04-26T13:13:43.641Z,1.00
2023-04-26T13:14:39.411Z,1.00
2023-04-26T13:15:39.398Z,1.30
2023-04-26T13:16:39.423Z,1.00
2023-04-26T13:17:39.382Z,1.30
2023-04-26T13:18:39.361Z,1.00